Decoded Metar for KHIB (HIBBING in MN, USA) (IATA:HIB) | Meteo·Mobile Aviation Weather
aviador You're here:

KHIB Decoded Metar

HIBBING in MN, USA
Report Time2019-03-23 07:53:00
UTC Time2019-03-23 08:48:39
Flight Rules vfr VFR
WindCalm
Visibility9999 m
Phenomena:N/A
Clouds:N/A
Expected CloudBase > 400 ft AGL from Temp-Dew spread
CeilingNone
Temp-9°C (ISA -21)
Dew Point-10°C (93% RH)
AAT-12.1°C
QNH1021 hPa
Density Alt-1,526 ft
Elevation1,352 ft
Report Wrong Elevation
Raw Report
KHIB 230753Z AUTO 00000KT 10SM CLR M09/M10 A3016 RMK AO2 SLP237
T10891100=

Extra information for KHIB:More info

Metar Taf Metar & Taf Last 4 Metars F.Rules Stats Wind Profile Meteogram Temp Stats Airport Information Weather charts Add Link Nearby VenuesMetar ALERT Operation Metar Decoded Social comments

AIRNAV info for KHIB